createdAt,value
2019-04-30T00:01:18.000Z,89
2019-04-30T00:03:30.000Z,88.5
2019-04-30T00:04:37.000Z,88.4
2019-04-30T00:05:45.000Z,89.3
2019-04-30T00:07:57.000Z,89.9
2019-04-30T00:10:08.000Z,89.5
2019-04-30T00:12:20.000Z,88.9
2019-04-30T00:14:32.000Z,89.1
2019-04-30T00:16:44.000Z,88.7
2019-04-30T00:18:56.000Z,88.6
2019-04-30T00:21:08.000Z,88
2019-04-30T00:23:20.000Z,88.1
2019-04-30T00:25:32.000Z,89
2019-04-30T00:26:39.000Z,89.4
2019-04-30T00:27:46.000Z,89.4
2019-04-30T00:29:58.000Z,89.3
2019-04-30T00:32:10.000Z,87.3
2019-04-30T00:34:22.000Z,86.6
2019-04-30T00:36:34.000Z,87.5
2019-04-30T00:38:46.000Z,88
2019-04-30T00:40:58.000Z,89
2019-04-30T00:43:10.000Z,90.1
2019-04-30T00:45:21.000Z,90.1
2019-04-30T00:47:33.000Z,89.7
2019-04-30T00:48:41.000Z,89.7
2019-04-30T00:49:48.000Z,89.6
2019-04-30T00:52:00.000Z,89.9
2019-04-30T00:54:12.000Z,89.9
2019-04-30T00:56:24.000Z,89.7
2019-04-30T00:58:36.000Z,89.9
2019-04-30T01:00:48.000Z,90.6
2019-04-30T01:02:59.000Z,90.5
2019-04-30T01:05:11.000Z,90.6
2019-04-30T01:07:23.000Z,87.7
2019-04-30T01:09:35.000Z,100
2019-04-30T01:10:42.000Z,88.7
2019-04-30T01:11:50.000Z,89.8
2019-04-30T01:14:02.000Z,89.3
2019-04-30T01:16:14.000Z,89.7
2019-04-30T01:18:26.000Z,89.9
2019-04-30T01:20:37.000Z,90
2019-04-30T01:22:49.000Z,89
2019-04-30T01:25:01.000Z,88.5
2019-04-30T01:27:13.000Z,89
2019-04-30T01:29:25.000Z,89
2019-04-30T01:31:37.000Z,88.9
2019-04-30T01:32:44.000Z,89.7
2019-04-30T01:33:52.000Z,89.7
2019-04-30T01:36:04.000Z,90.1
2019-04-30T01:38:15.000Z,90.4
2019-04-30T01:40:27.000Z,89.5
2019-04-30T01:42:39.000Z,90.5
2019-04-30T01:44:51.000Z,89.8
2019-04-30T01:47:03.000Z,90.4
2019-04-30T01:49:15.000Z,89.6
2019-04-30T01:51:27.000Z,89.9
2019-04-30T01:53:39.000Z,91.2
2019-04-30T01:54:46.000Z,90.1
2019-04-30T01:55:53.000Z,90.9
2019-04-30T01:58:05.000Z,90.9
2019-04-30T02:00:17.000Z,89.6
2019-04-30T02:02:29.000Z,90.8
2019-04-30T02:04:41.000Z,91.3
2019-04-30T02:06:53.000Z,91.3
2019-04-30T02:09:05.000Z,91
2019-04-30T02:11:17.000Z,90.7
2019-04-30T02:13:28.000Z,90.7
2019-04-30T02:15:40.000Z,90.7
2019-04-30T02:16:48.000Z,91.5
2019-04-30T02:17:55.000Z,91.5
2019-04-30T02:20:07.000Z,91.2
2019-04-30T02:22:19.000Z,91.2
2019-04-30T02:24:31.000Z,90.5
2019-04-30T02:26:43.000Z,91.7
2019-04-30T02:28:55.000Z,91.3
2019-04-30T02:31:06.000Z,92
2019-04-30T02:33:18.000Z,91.7
2019-04-30T02:35:30.000Z,91.3
2019-04-30T02:37:42.000Z,91.5
2019-04-30T02:38:50.000Z,91.3
2019-04-30T02:39:57.000Z,90.9
2019-04-30T02:42:09.000Z,90.6
2019-04-30T02:44:21.000Z,91.3
2019-04-30T02:46:33.000Z,91.6
2019-04-30T02:48:44.000Z,92.1
2019-04-30T02:50:56.000Z,92
2019-04-30T02:53:08.000Z,91.4
2019-04-30T02:55:20.000Z,92.1
2019-04-30T02:57:32.000Z,91.8
2019-04-30T02:59:44.000Z,92
2019-04-30T03:00:51.000Z,91.7
2019-04-30T03:01:59.000Z,92
2019-04-30T03:04:11.000Z,91.2
2019-04-30T03:06:23.000Z,91.7
2019-04-30T03:08:34.000Z,90.7
2019-04-30T03:10:46.000Z,91.3
2019-04-30T03:12:58.000Z,92
2019-04-30T03:15:10.000Z,91.4
2019-04-30T03:17:22.000Z,90.4
2019-04-30T03:19:34.000Z,90.9
2019-04-30T03:21:46.000Z,91.7
2019-04-30T03:22:53.000Z,91.8
2019-04-30T03:24:01.000Z,92
2019-04-30T03:26:12.000Z,92.1
2019-04-30T03:28:24.000Z,93
2019-04-30T03:30:36.000Z,93.4
2019-04-30T03:32:48.000Z,92.3
2019-04-30T03:35:00.000Z,92.4
2019-04-30T03:37:12.000Z,91.6
2019-04-30T03:39:24.000Z,91.2
2019-04-30T03:41:36.000Z,91.5
2019-04-30T03:43:47.000Z,91.7
2019-04-30T03:44:55.000Z,92.3
2019-04-30T03:48:14.000Z,92.3
2019-04-30T03:50:26.000Z,92.8
2019-04-30T03:52:38.000Z,92.5
2019-04-30T03:54:50.000Z,92.6
2019-04-30T03:57:02.000Z,92.9
2019-04-30T03:59:14.000Z,93.1
2019-04-30T04:01:25.000Z,93.1
2019-04-30T04:03:37.000Z,93.1
2019-04-30T04:05:49.000Z,92.3
2019-04-30T04:06:57.000Z,92.3
2019-04-30T04:08:04.000Z,92.1
2019-04-30T04:10:16.000Z,92.2
2019-04-30T04:12:28.000Z,92.2
2019-04-30T04:14:40.000Z,92.1
2019-04-30T04:16:52.000Z,92.7
2019-04-30T04:19:03.000Z,92.5
2019-04-30T04:21:15.000Z,100
2019-04-30T04:23:27.000Z,92.3
2019-04-30T04:25:39.000Z,92.3
2019-04-30T04:27:51.000Z,92.2
2019-04-30T04:28:58.000Z,92.2
2019-04-30T04:30:06.000Z,91.7
2019-04-30T04:32:18.000Z,91.9
2019-04-30T04:34:30.000Z,92.2
2019-04-30T04:36:41.000Z,92.5
2019-04-30T04:38:53.000Z,92.9
2019-04-30T04:41:05.000Z,92.1
2019-04-30T04:43:17.000Z,92.1
2019-04-30T04:45:29.000Z,92.1
2019-04-30T04:47:41.000Z,92
2019-04-30T04:49:53.000Z,91.7
2019-04-30T04:51:00.000Z,92.9
2019-04-30T04:52:08.000Z,93
2019-04-30T04:54:19.000Z,92.8
2019-04-30T04:56:31.000Z,91.7
2019-04-30T04:58:43.000Z,91.9
2019-04-30T05:00:55.000Z,92.5
2019-04-30T05:03:07.000Z,91.3
2019-04-30T05:05:19.000Z,91.3
2019-04-30T05:07:31.000Z,90.3
2019-04-30T05:09:43.000Z,90.6
2019-04-30T05:11:54.000Z,90.6
2019-04-30T05:13:02.000Z,91.7
2019-04-30T05:14:09.000Z,92.3
2019-04-30T05:16:21.000Z,92.2
2019-04-30T05:18:33.000Z,91.1
2019-04-30T05:20:45.000Z,91.8
2019-04-30T05:22:57.000Z,90.9
2019-04-30T05:25:09.000Z,91.3
2019-04-30T05:27:21.000Z,91.8
2019-04-30T05:29:32.000Z,90.9
2019-04-30T05:31:44.000Z,91.6
2019-04-30T05:33:56.000Z,91.1
2019-04-30T05:35:04.000Z,91.1
2019-04-30T05:36:11.000Z,91.1
2019-04-30T05:38:23.000Z,90.9
2019-04-30T05:40:35.000Z,91.5
2019-04-30T05:42:47.000Z,91.2
2019-04-30T05:44:59.000Z,91.8
2019-04-30T05:47:10.000Z,90.2
2019-04-30T05:49:22.000Z,90.7
2019-04-30T05:51:34.000Z,91.8
2019-04-30T05:53:46.000Z,90.7
2019-04-30T05:55:58.000Z,91.1
2019-04-30T05:57:05.000Z,91.4
2019-04-30T05:58:13.000Z,90.6
2019-04-30T06:00:25.000Z,91
2019-04-30T06:02:37.000Z,90.5
2019-04-30T06:04:48.000Z,91.5
2019-04-30T06:07:00.000Z,90.7
2019-04-30T06:09:12.000Z,92
2019-04-30T06:11:24.000Z,91.4
2019-04-30T06:13:36.000Z,91.6
2019-04-30T06:15:48.000Z,91.1
2019-04-30T06:18:00.000Z,91.5
2019-04-30T06:19:07.000Z,91.2
2019-04-30T06:20:15.000Z,91.3
2019-04-30T06:22:27.000Z,91.2
2019-04-30T06:26:50.000Z,92
2019-04-30T06:29:02.000Z,91.5
2019-04-30T06:31:14.000Z,91.6
2019-04-30T06:33:26.000Z,92
2019-04-30T06:35:38.000Z,91.6
2019-04-30T06:37:50.000Z,92
2019-04-30T06:40:02.000Z,92
2019-04-30T06:41:09.000Z,92.3
2019-04-30T06:42:16.000Z,92.2
2019-04-30T06:44:28.000Z,91.9
2019-04-30T06:46:40.000Z,92.1
2019-04-30T06:48:52.000Z,91.6
2019-04-30T06:51:04.000Z,92
2019-04-30T06:53:16.000Z,92.1
2019-04-30T06:55:28.000Z,92.3
2019-04-30T06:57:40.000Z,92.8
2019-04-30T06:59:51.000Z,92
2019-04-30T07:02:03.000Z,90.8
2019-04-30T07:03:11.000Z,91.5
2019-04-30T07:04:18.000Z,91.5
2019-04-30T07:06:30.000Z,91.5
2019-04-30T07:08:42.000Z,90.8
2019-04-30T07:10:54.000Z,92
2019-04-30T07:13:06.000Z,91.1
2019-04-30T07:15:18.000Z,91.1
2019-04-30T07:17:29.000Z,91.9
2019-04-30T07:19:41.000Z,92.3
2019-04-30T07:21:53.000Z,90.9
2019-04-30T07:24:05.000Z,91.8
2019-04-30T07:25:12.000Z,92.5
2019-04-30T07:26:20.000Z,92.4
2019-04-30T07:28:32.000Z,92.1
2019-04-30T07:30:44.000Z,91
2019-04-30T07:32:56.000Z,91.7
2019-04-30T07:35:07.000Z,91.5
2019-04-30T07:37:19.000Z,91.1
2019-04-30T07:39:31.000Z,91.2
2019-04-30T07:41:43.000Z,92.9
2019-04-30T07:43:55.000Z,92.4
2019-04-30T07:46:07.000Z,92.7
2019-04-30T07:47:14.000Z,91.6
2019-04-30T07:48:22.000Z,91.7
2019-04-30T07:50:34.000Z,91.9
2019-04-30T07:52:45.000Z,90.3
2019-04-30T07:54:57.000Z,90.8
2019-04-30T07:57:09.000Z,91.3
2019-04-30T07:59:21.000Z,92
2019-04-30T08:01:33.000Z,91
2019-04-30T08:03:45.000Z,90.4
2019-04-30T08:05:57.000Z,90.8
2019-04-30T08:08:09.000Z,91.1
2019-04-30T08:09:16.000Z,90.8
2019-04-30T08:10:23.000Z,90.7
2019-04-30T08:12:35.000Z,90.4
2019-04-30T08:14:47.000Z,91.4
2019-04-30T08:16:59.000Z,89.9
2019-04-30T08:19:11.000Z,90.8
2019-04-30T08:21:23.000Z,90.1
2019-04-30T08:23:35.000Z,89.4
2019-04-30T08:25:47.000Z,89.5
2019-04-30T08:27:58.000Z,91.8
2019-04-30T08:30:10.000Z,89.4
2019-04-30T08:31:18.000Z,90.2
2019-04-30T08:32:25.000Z,89.5
2019-04-30T08:34:37.000Z,89.3
2019-04-30T08:36:49.000Z,89.3
2019-04-30T08:39:01.000Z,88.8
2019-04-30T08:41:13.000Z,89
2019-04-30T08:43:25.093Z,87.8
2019-04-30T08:45:36.000Z,87.9
2019-04-30T08:47:48.000Z,88.4
2019-04-30T08:50:00.000Z,88.9
2019-04-30T08:52:12.000Z,89
2019-04-30T08:53:20.000Z,88.8
2019-04-30T08:54:27.000Z,89
2019-04-30T08:56:39.000Z,89.1
2019-04-30T08:58:51.000Z,88
2019-04-30T09:01:03.000Z,88.4
2019-04-30T09:03:14.000Z,89
2019-04-30T09:05:26.000Z,90.8
2019-04-30T09:07:38.000Z,87.6
2019-04-30T09:09:50.000Z,86.3
2019-04-30T09:12:02.000Z,86.2
2019-04-30T09:14:14.000Z,86.4
2019-04-30T09:15:21.000Z,87.8
2019-04-30T09:16:29.000Z,86.3
2019-04-30T09:18:41.000Z,85.4
2019-04-30T09:20:52.000Z,86.4
2019-04-30T09:23:04.000Z,86.6
2019-04-30T09:25:16.000Z,84.5
2019-04-30T09:27:28.000Z,81.1
2019-04-30T09:29:40.000Z,81
2019-04-30T09:31:52.000Z,81.5
2019-04-30T09:34:04.000Z,82.1
2019-04-30T09:36:16.000Z,79.2
2019-04-30T09:37:23.000Z,79.5
2019-04-30T09:38:31.000Z,80.1
2019-04-30T09:40:42.000Z,81.1
2019-04-30T09:42:54.000Z,80.1
2019-04-30T09:45:06.000Z,79.7
2019-04-30T09:47:18.000Z,79.7
2019-04-30T09:49:30.000Z,77.6
2019-04-30T09:51:42.000Z,80.2
2019-04-30T09:53:54.000Z,80.3
2019-04-30T09:56:06.000Z,81.4
2019-04-30T09:58:17.000Z,81.1
2019-04-30T09:59:25.000Z,80.3
2019-04-30T10:00:32.000Z,81.2
2019-04-30T10:02:44.000Z,79.1
2019-04-30T10:04:56.000Z,77.1
2019-04-30T10:07:08.000Z,78.5
2019-04-30T10:09:20.000Z,76.6
2019-04-30T10:11:32.000Z,77.4
2019-04-30T10:13:44.000Z,76.2
2019-04-30T10:15:55.000Z,76.4
2019-04-30T10:18:07.000Z,75.7
2019-04-30T10:20:19.000Z,78.7
2019-04-30T10:21:27.000Z,76.6
2019-04-30T10:22:34.000Z,77.5
2019-04-30T10:24:46.000Z,74.3
2019-04-30T10:26:58.000Z,75.5
2019-04-30T10:29:10.000Z,77.5
2019-04-30T10:31:22.000Z,72.5
2019-04-30T10:33:33.000Z,73.7
2019-04-30T10:35:45.000Z,73.4
2019-04-30T10:37:57.000Z,71.9
2019-04-30T10:40:09.000Z,72.4
2019-04-30T10:42:21.000Z,69.1
2019-04-30T10:43:28.000Z,69.8
2019-04-30T10:44:36.000Z,70
2019-04-30T10:46:48.000Z,70.5
2019-04-30T10:49:00.000Z,70.2
2019-04-30T10:51:11.000Z,69.3
2019-04-30T10:53:23.000Z,72.1
2019-04-30T10:55:35.000Z,64.5
2019-04-30T10:57:47.000Z,64.2
2019-04-30T10:59:59.000Z,63.1
2019-04-30T11:02:11.000Z,59.5
2019-04-30T11:04:23.000Z,63.1
2019-04-30T11:05:30.000Z,61.2
2019-04-30T11:06:38.000Z,64.6
2019-04-30T11:08:49.000Z,61
2019-04-30T11:11:01.000Z,61.9
2019-04-30T11:13:13.000Z,59.1
2019-04-30T11:15:25.000Z,62
2019-04-30T11:17:37.000Z,59
2019-04-30T11:19:49.000Z,58.8
2019-04-30T11:22:01.000Z,56.6
2019-04-30T11:24:13.000Z,57.3
2019-04-30T11:26:24.000Z,58.5
2019-04-30T11:27:32.000Z,58.9
2019-04-30T11:28:39.000Z,61.6
2019-04-30T11:30:51.000Z,59.7
2019-04-30T11:33:03.000Z,61.8
2019-04-30T11:35:15.000Z,62.8
2019-04-30T11:37:27.000Z,62.5
2019-04-30T11:39:39.000Z,62.8
2019-04-30T11:41:51.000Z,63.1
2019-04-30T11:44:02.000Z,62.5
2019-04-30T11:46:14.000Z,59.6
2019-04-30T11:48:26.000Z,60.3
2019-04-30T11:49:34.000Z,63
2019-04-30T11:50:41.000Z,61.8
2019-04-30T11:52:53.000Z,61.7
2019-04-30T11:55:05.000Z,64
2019-04-30T11:57:17.000Z,64.1
2019-04-30T11:59:29.000Z,63.5
2019-04-30T12:01:40.000Z,61.1
2019-04-30T12:03:52.000Z,61.8
2019-04-30T12:06:04.000Z,62.4
2019-04-30T12:08:16.000Z,64.8
2019-04-30T12:10:28.000Z,63.9
2019-04-30T12:11:35.000Z,65.3
2019-04-30T12:12:43.000Z,66.1
2019-04-30T12:14:55.000Z,67.3
2019-04-30T12:17:07.000Z,63.4
2019-04-30T12:19:18.000Z,66.5
2019-04-30T12:21:30.000Z,63.7
2019-04-30T12:23:42.000Z,63.4
2019-04-30T12:25:54.000Z,63.4
2019-04-30T12:28:06.000Z,64.6
2019-04-30T12:30:18.000Z,66.2
2019-04-30T12:32:30.000Z,66
2019-04-30T12:33:37.000Z,65.2
2019-04-30T12:34:45.000Z,63.8
2019-04-30T12:36:56.000Z,65
2019-04-30T12:39:08.000Z,59.1
2019-04-30T12:41:20.000Z,59.2
2019-04-30T12:45:44.000Z,57.6
2019-04-30T12:47:56.000Z,54.5
2019-04-30T12:50:08.000Z,52.5
2019-04-30T12:52:20.000Z,57.2
2019-04-30T12:54:31.000Z,55
2019-04-30T12:55:39.000Z,56
2019-04-30T12:56:46.000Z,54
2019-04-30T12:58:58.000Z,53.6
2019-04-30T13:01:10.000Z,52.9
2019-04-30T13:03:22.000Z,56.4
2019-04-30T13:05:34.000Z,56.9
2019-04-30T13:07:46.000Z,54.4
2019-04-30T13:09:58.000Z,56.3
2019-04-30T13:12:09.000Z,54.5
2019-04-30T13:14:21.000Z,56.1
2019-04-30T13:16:33.000Z,54.3
2019-04-30T13:17:41.000Z,57.1
2019-04-30T13:18:48.000Z,56
2019-04-30T13:21:00.000Z,55.9
2019-04-30T13:23:12.000Z,55.6
2019-04-30T13:25:24.000Z,55
2019-04-30T13:27:36.000Z,54.7
2019-04-30T13:29:48.000Z,55.4
2019-04-30T13:31:59.000Z,56.3
2019-04-30T13:34:11.000Z,56.6
2019-04-30T13:36:23.000Z,55.3
2019-04-30T13:38:35.000Z,50.3
2019-04-30T13:39:42.000Z,50.8
2019-04-30T13:40:50.000Z,54
2019-04-30T13:43:02.000Z,51.2
2019-04-30T13:45:14.000Z,52.8
2019-04-30T13:47:26.000Z,50.2
2019-04-30T13:49:37.000Z,50.2
2019-04-30T13:51:49.000Z,49.5
2019-04-30T13:54:01.000Z,53
2019-04-30T13:56:13.000Z,51.4
2019-04-30T13:58:25.000Z,49.4
2019-04-30T14:00:37.000Z,49.1
2019-04-30T14:01:44.000Z,50.6
2019-04-30T14:02:52.000Z,51
2019-04-30T14:05:04.000Z,50.9
2019-04-30T14:07:15.000Z,51.4
2019-04-30T14:09:27.000Z,52.5
2019-04-30T14:11:39.000Z,50.8
2019-04-30T14:13:51.000Z,47.6
2019-04-30T14:16:03.000Z,49.5
2019-04-30T14:18:15.000Z,51.1
2019-04-30T14:20:27.000Z,49.5
2019-04-30T14:22:39.000Z,50.4
2019-04-30T14:23:46.000Z,49.3
2019-04-30T14:24:53.000Z,49.5
2019-04-30T14:27:05.000Z,48.1
2019-04-30T14:29:17.000Z,50
2019-04-30T14:31:29.000Z,48.6
2019-04-30T14:33:41.000Z,48.7
2019-04-30T14:35:53.000Z,46.4
2019-04-30T14:40:17.000Z,51
2019-04-30T14:42:28.000Z,51.9
2019-04-30T14:44:40.000Z,49
2019-04-30T14:45:48.000Z,49.6
2019-04-30T14:46:55.000Z,48
2019-04-30T14:49:07.000Z,50
2019-04-30T14:51:19.000Z,47.5
2019-04-30T14:53:31.000Z,48.9
2019-04-30T14:55:43.000Z,48.2
2019-04-30T14:57:55.000Z,49.8
2019-04-30T15:00:06.000Z,51.3
2019-04-30T15:02:18.000Z,50
2019-04-30T15:04:30.000Z,48.4
2019-04-30T15:06:42.000Z,48
2019-04-30T15:07:49.000Z,46.8
2019-04-30T15:08:57.000Z,48.1
2019-04-30T15:11:09.000Z,51.4
2019-04-30T15:13:21.000Z,52.5
2019-04-30T15:15:33.000Z,52.1
2019-04-30T15:17:44.000Z,51.9
2019-04-30T15:19:56.000Z,51.3
2019-04-30T15:22:08.000Z,52.3
2019-04-30T15:24:20.000Z,50.7
2019-04-30T15:26:32.000Z,52.3
2019-04-30T15:28:44.000Z,53.1
2019-04-30T15:29:51.000Z,51.1
2019-04-30T15:30:59.000Z,51.3
2019-04-30T15:33:11.000Z,51.1
2019-04-30T15:35:22.000Z,53
2019-04-30T15:37:34.000Z,52.1
2019-04-30T15:39:46.000Z,54.5
2019-04-30T15:41:58.000Z,52.8
2019-04-30T15:44:10.000Z,51.7
2019-04-30T15:46:22.000Z,52.1
2019-04-30T15:48:34.000Z,52.4
2019-04-30T15:50:46.000Z,52.9
2019-04-30T15:51:53.000Z,51.9
2019-04-30T15:53:00.000Z,52
2019-04-30T15:55:12.000Z,53.3
2019-04-30T15:57:24.000Z,54.3
2019-04-30T15:59:36.000Z,53.4
2019-04-30T16:01:48.000Z,52.2
2019-04-30T16:04:00.000Z,50.8
2019-04-30T16:06:12.000Z,51.1
2019-04-30T16:08:24.000Z,52.5
2019-04-30T16:10:35.000Z,53.1
2019-04-30T16:12:47.000Z,54.3
2019-04-30T16:13:55.000Z,54.7
2019-04-30T16:15:02.000Z,55.5
2019-04-30T16:17:14.000Z,54.2
2019-04-30T16:19:26.000Z,54.7
2019-04-30T16:21:38.000Z,54.3
2019-04-30T16:23:50.000Z,54.6
2019-04-30T16:26:02.000Z,56
2019-04-30T16:28:13.000Z,57.4
2019-04-30T16:30:25.000Z,55.8
2019-04-30T16:32:37.000Z,55.1
2019-04-30T16:34:49.000Z,54.6
2019-04-30T16:35:57.000Z,54.3
2019-04-30T16:37:04.000Z,55.5
2019-04-30T16:39:16.000Z,54.4
2019-04-30T16:41:28.000Z,54.8
2019-04-30T16:43:40.000Z,54.2
2019-04-30T16:45:51.000Z,53.6
2019-04-30T16:48:03.000Z,54.8
2019-04-30T16:50:15.000Z,56.3
2019-04-30T16:52:27.000Z,56.6
2019-04-30T16:54:39.000Z,55.9
2019-04-30T16:56:51.000Z,55.8
2019-04-30T16:57:58.000Z,56.5
2019-04-30T16:59:06.000Z,57.2
2019-04-30T17:01:18.000Z,56.8
2019-04-30T17:03:29.000Z,57.7
2019-04-30T17:05:41.000Z,57.7
2019-04-30T17:07:53.000Z,57.8
2019-04-30T17:10:05.000Z,57.3
2019-04-30T17:12:17.000Z,57
2019-04-30T17:14:29.000Z,56.7
2019-04-30T17:16:41.000Z,56.8
2019-04-30T17:18:53.000Z,57.5
2019-04-30T17:20:00.000Z,57.5
2019-04-30T17:21:07.000Z,57
2019-04-30T17:23:19.000Z,57.3
2019-04-30T17:25:31.000Z,58.4
2019-04-30T17:27:43.000Z,57.8
2019-04-30T17:29:55.000Z,57.4
2019-04-30T17:32:07.000Z,57.6
2019-04-30T17:34:19.000Z,56.8
2019-04-30T17:36:31.000Z,55.9
2019-04-30T17:38:42.000Z,56.2
2019-04-30T17:40:54.000Z,55.7
2019-04-30T17:42:02.000Z,55.7
2019-04-30T17:43:09.000Z,56
2019-04-30T17:45:21.000Z,56.3
2019-04-30T17:47:33.000Z,56.1
2019-04-30T17:49:45.000Z,57.2
2019-04-30T17:51:57.000Z,56.9
2019-04-30T17:54:09.000Z,58
2019-04-30T17:56:21.000Z,58
2019-04-30T17:58:32.000Z,58.6
2019-04-30T18:00:44.000Z,59
2019-04-30T18:02:56.000Z,58.9
2019-04-30T18:04:04.000Z,58.1
2019-04-30T18:05:11.000Z,58.9
2019-04-30T18:07:23.000Z,58.6
2019-04-30T18:09:35.000Z,59.1
2019-04-30T18:11:47.000Z,59.4
2019-04-30T18:13:59.000Z,58.4
2019-04-30T18:16:10.000Z,59.2
2019-04-30T18:18:22.000Z,59.2
2019-04-30T18:20:34.000Z,59.3
2019-04-30T18:22:46.000Z,58.9
2019-04-30T18:24:58.000Z,60
2019-04-30T18:26:05.000Z,60.1
2019-04-30T18:27:13.000Z,59.8
2019-04-30T18:29:25.000Z,59.6
2019-04-30T18:31:37.000Z,58.2
2019-04-30T18:33:48.000Z,58.8
2019-04-30T18:36:00.000Z,59.3
2019-04-30T18:38:12.000Z,59.7
2019-04-30T18:40:24.000Z,59.7
2019-04-30T18:42:36.000Z,58.3
2019-04-30T18:44:48.000Z,58.8
2019-04-30T18:47:00.000Z,58.2
2019-04-30T18:48:07.000Z,58.8
2019-04-30T18:49:15.000Z,59.8
2019-04-30T18:51:26.000Z,59.4
2019-04-30T18:53:38.000Z,59.4
2019-04-30T18:55:50.000Z,61.3
2019-04-30T18:58:02.000Z,61.7
2019-04-30T19:00:14.000Z,61.1
2019-04-30T19:02:26.000Z,60
2019-04-30T19:04:38.000Z,61.2
2019-04-30T19:06:50.000Z,60.8
2019-04-30T19:09:01.000Z,60.9
2019-04-30T19:10:09.000Z,60.9
2019-04-30T19:11:16.000Z,60.8
2019-04-30T19:13:28.000Z,60.1
2019-04-30T19:15:40.000Z,60.2
2019-04-30T19:17:52.000Z,58.4
2019-04-30T19:20:04.000Z,58.2
2019-04-30T19:22:16.000Z,56.5
2019-04-30T19:24:28.000Z,57.1
2019-04-30T19:26:39.000Z,58.5
2019-04-30T19:28:51.000Z,57.4
2019-04-30T19:31:03.000Z,56.2
2019-04-30T19:32:11.000Z,56.6
2019-04-30T19:33:18.000Z,56.8
2019-04-30T19:35:30.000Z,56.7
2019-04-30T19:37:42.000Z,55.2
2019-04-30T19:39:54.000Z,54.5
2019-04-30T19:42:06.000Z,54.7
2019-04-30T19:44:17.000Z,53.7
2019-04-30T19:46:29.000Z,54.6
2019-04-30T19:48:41.000Z,55.5
2019-04-30T19:50:53.000Z,55.8
2019-04-30T19:53:05.000Z,55.8
2019-04-30T19:54:12.000Z,56.2
2019-04-30T19:55:20.000Z,58.3
2019-04-30T19:57:32.000Z,58.1
2019-04-30T19:59:44.000Z,60.3
2019-04-30T20:01:55.000Z,60.6
2019-04-30T20:04:07.000Z,59.8
2019-04-30T20:06:19.000Z,61.1
2019-04-30T20:08:31.000Z,61.3
2019-04-30T20:10:43.000Z,60.5
2019-04-30T20:12:55.000Z,61.1
2019-04-30T20:15:07.000Z,59.9
2019-04-30T20:16:14.000Z,60
2019-04-30T20:17:22.000Z,59.8
2019-04-30T20:19:33.000Z,60.4
2019-04-30T20:21:45.000Z,62.8
2019-04-30T20:23:57.000Z,61.4
2019-04-30T20:28:21.000Z,60.5
2019-04-30T20:30:33.000Z,60.8
2019-04-30T20:32:45.000Z,60.9
2019-04-30T20:34:57.000Z,61.7
2019-04-30T20:38:16.000Z,60.5
2019-04-30T20:39:23.000Z,60
2019-04-30T20:41:35.000Z,59.2
2019-04-30T20:43:47.000Z,59.8
2019-04-30T20:45:59.000Z,59.6
2019-04-30T20:48:11.000Z,60.1
2019-04-30T20:50:23.000Z,61.5
2019-04-30T20:52:35.000Z,61.8
2019-04-30T20:54:46.000Z,62.1
2019-04-30T20:56:58.000Z,61.1
2019-04-30T20:59:10.000Z,64.4
2019-04-30T21:00:18.000Z,63.9
2019-04-30T21:01:25.000Z,64.8
2019-04-30T21:03:37.000Z,64.4
2019-04-30T21:05:49.000Z,63.9
2019-04-30T21:08:01.000Z,62.8
2019-04-30T21:10:13.000Z,63.3
2019-04-30T21:12:24.000Z,64
2019-04-30T21:14:36.000Z,62.8
2019-04-30T21:16:48.000Z,63.3
2019-04-30T21:19:00.000Z,64.3
2019-04-30T21:21:12.000Z,65.8
2019-04-30T21:22:19.000Z,68.8
2019-04-30T21:23:27.000Z,69.8
2019-04-30T21:25:39.000Z,70.7
2019-04-30T21:27:51.000Z,69.4
2019-04-30T21:30:02.000Z,68.5
2019-04-30T21:32:14.000Z,67.8
2019-04-30T21:34:26.000Z,66.5
2019-04-30T21:36:38.000Z,67.6
2019-04-30T21:38:50.000Z,69.4
2019-04-30T21:41:02.000Z,70.1
2019-04-30T21:43:14.000Z,68.2
2019-04-30T21:44:21.000Z,67.8
2019-04-30T21:45:29.000Z,68.3
2019-04-30T21:47:40.000Z,67.7
2019-04-30T21:49:52.000Z,69.8
2019-04-30T21:52:04.000Z,71.4
2019-04-30T21:54:16.000Z,70.8
2019-04-30T21:56:28.000Z,71.5
2019-04-30T21:58:40.000Z,72.7
2019-04-30T22:00:52.000Z,69.9
2019-04-30T22:03:04.000Z,67.3
2019-04-30T22:05:15.000Z,67.1
2019-04-30T22:06:23.000Z,67.5
2019-04-30T22:07:30.000Z,69
2019-04-30T22:09:42.000Z,68.5
2019-04-30T22:11:54.000Z,67.7
2019-04-30T22:14:06.000Z,69.5
2019-04-30T22:16:18.000Z,70.1
2019-04-30T22:18:30.000Z,68.8
2019-04-30T22:20:42.000Z,67.8
2019-04-30T22:22:54.000Z,67.5
2019-04-30T22:25:05.000Z,67
2019-04-30T22:27:17.000Z,67.3
2019-04-30T22:28:25.000Z,65.9
2019-04-30T22:29:32.000Z,64.9
2019-04-30T22:31:44.000Z,64.9
2019-04-30T22:33:56.000Z,65.9
2019-04-30T22:36:08.000Z,63.7
2019-04-30T22:38:20.000Z,62.7
2019-04-30T22:40:32.000Z,64
2019-04-30T22:42:43.000Z,65.8
2019-04-30T22:44:55.000Z,66
2019-04-30T22:47:07.000Z,66.2
2019-04-30T22:49:19.000Z,66.5
2019-04-30T22:50:26.000Z,70.5
2019-04-30T22:51:34.000Z,70.7
2019-04-30T22:53:46.000Z,71.7
2019-04-30T22:55:58.000Z,71.3
2019-04-30T22:58:10.000Z,72
2019-04-30T23:00:21.000Z,70.3
2019-04-30T23:02:33.000Z,68
2019-04-30T23:04:45.000Z,68.3
2019-04-30T23:06:57.000Z,66.5
2019-04-30T23:09:09.000Z,65.6
2019-04-30T23:11:21.000Z,65.8
2019-04-30T23:12:28.000Z,65.2
2019-04-30T23:13:36.000Z,63.6
2019-04-30T23:15:48.000Z,63.6
2019-04-30T23:17:59.000Z,63.1
2019-04-30T23:20:11.000Z,63.2
2019-04-30T23:22:23.000Z,62.4
2019-04-30T23:24:35.000Z,61.9
2019-04-30T23:26:47.000Z,61.3
2019-04-30T23:28:59.000Z,61
2019-04-30T23:31:11.000Z,62
2019-04-30T23:33:23.000Z,62.6
2019-04-30T23:34:30.000Z,61.8
2019-04-30T23:35:37.000Z,61.8
2019-04-30T23:37:49.000Z,62.3
2019-04-30T23:40:01.000Z,62.2
2019-04-30T23:42:13.000Z,60.7
2019-04-30T23:44:25.000Z,60.6
2019-04-30T23:46:37.000Z,60.9
2019-04-30T23:48:49.000Z,61.8
2019-04-30T23:51:01.000Z,61.4
2019-04-30T23:53:12.000Z,61
2019-04-30T23:55:24.000Z,60.4
2019-04-30T23:57:39.000Z,61.1
2019-04-30T23:59:51.000Z,61.1
